Time;durP1;ratioP1;P1;durP2;ratioP2;P2;SDS_P1;SDS_P2;PMS_P1;PMS_P2;Temp;Humidity;BMP_temperature;BMP_pressure;BME280_temperature;BME280_humidity;BME280_pressure;Samples;Min_cycle;Max_cycle;Signal;HPM_P1;HPM_P2
2023/09/05 00:01:52;;;;;;;7.82;4.63;;;;;;;12.48;88.45;99963.78;4860669;29;20110;-58
2023/09/05 00:04:17;;;;;;;8.50;4.25;;;;;;;12.49;88.59;99969.88;4860710;29;20056;-58
2023/09/05 00:06:43;;;;;;;5.85;3.25;;;;;;;12.47;88.74;99956.84;4860776;29;20041;-57
2023/09/05 00:09:09;;;;;;;5.20;3.83;;;;;;;12.52;89.03;99969.41;4860650;29;20053;-58
2023/09/05 00:11:34;;;;;;;8.70;3.30;;;;;;;12.55;89.09;99962.81;4860831;29;20500;-57
2023/09/05 00:14:00;;;;;;;4.60;3.42;;;;;;;12.57;89.06;99958.09;4860250;29;20053;-58
2023/09/05 00:16:27;;;;;;;5.57;3.90;;;;;;;12.59;88.85;99964.78;4859660;29;20067;-58
2023/09/05 00:18:53;;;;;;;6.55;3.22;;;;;;;12.58;88.96;99959.69;4860828;29;20046;-56
2023/09/05 00:21:18;;;;;;;5.32;2.90;;;;;;;12.56;89.00;99964.44;4860778;29;20448;-59
2023/09/05 00:23:45;;;;;;;5.20;2.90;;;;;;;12.55;88.96;99965.47;4860482;29;20436;-57
2023/09/05 00:26:10;;;;;;;7.57;3.55;;;;;;;12.53;89.01;99960.41;4860393;29;20056;-58
2023/09/05 00:28:36;;;;;;;9.25;4.80;;;;;;;12.48;89.03;99961.09;4859153;29;20037;-56
2023/09/05 00:31:02;;;;;;;4.90;3.17;;;;;;;12.45;89.27;99960.78;4859049;29;20048;-58
2023/09/05 00:33:31;;;;;;;6.97;4.28;;;;;;;12.41;89.57;99957.78;4843611;29;20046;-57
2023/09/05 00:35:57;;;;;;;3.70;3.10;;;;;;;12.44;90.36;99961.81;4860271;29;20053;-57
2023/09/05 00:38:23;;;;;;;3.85;2.58;;;;;;;12.55;90.21;99954.84;4858451;29;20130;-58
2023/09/05 00:40:49;;;;;;;3.92;3.05;;;;;;;12.61;89.65;99957.34;4858261;29;20606;-58
2023/09/05 00:43:19;;;;;;;5.07;3.38;;;;;;;12.72;88.82;99945.88;4858883;29;20495;-57
2023/09/05 00:45:51;;;;;;;4.20;2.80;;;;;;;12.76;88.60;99954.19;4858855;29;20041;-57
2023/09/05 00:48:27;;;;;;;5.03;3.10;;;;;;;12.78;88.44;99944.13;4858967;29;20492;-58
2023/09/05 00:50:56;;;;;;;3.35;3.05;;;;;;;12.85;88.25;99955.44;4858884;29;20053;-57
2023/09/05 00:53:25;;;;;;;11.07;6.63;;;;;;;12.76;86.89;99956.84;4858935;29;20573;-57
2023/09/05 00:55:51;;;;;;;8.83;5.57;;;;;;;12.62;87.67;99964.31;4858717;29;20465;-57
2023/09/05 00:58:18;;;;;;;4.13;3.47;;;;;;;12.49;89.05;99964.56;4860298;29;20294;-58
2023/09/05 01:00:44;;;;;;;6.78;4.35;;;;;;;12.42;89.43;99966.56;4860096;29;20106;-57
2023/09/05 01:03:10;;;;;;;10.20;5.45;;;;;;;12.31;89.77;99962.88;4858558;29;20071;-58
2023/09/05 01:05:38;;;;;;;9.45;4.95;;;;;;;12.19;89.90;99954.94;4859985;29;20507;-57
2023/09/05 01:08:08;;;;;;;11.30;7.10;;;;;;;12.16;90.12;99962.56;4858675;29;20080;-56
2023/09/05 01:10:48;;;;;;;16.55;11.43;;;;;;;12.12;91.17;99972.03;4858599;29;20080;-56
2023/09/05 01:13:22;;;;;;;14.02;9.35;;;;;;;12.04;91.01;99979.31;4843243;29;20052;-59
2023/09/05 01:15:48;;;;;;;10.20;6.43;;;;;;;11.98;91.60;99972.28;4858383;29;20538;-57
2023/09/05 01:18:14;;;;;;;9.52;5.72;;;;;;;11.91;92.09;99960.16;4859415;29;20045;-57
2023/09/05 01:21:06;;;;;;;12.98;7.97;;;;;;;11.91;92.57;99962.81;4858308;29;20149;-58
2023/09/05 01:23:44;;;;;;;15.98;9.73;;;;;;;11.89;92.32;99967.56;4859662;29;20061;-57
2023/09/05 01:26:10;;;;;;;25.23;15.15;;;;;;;11.86;92.48;99973.34;4859705;29;20064;-57
2023/09/05 01:28:41;;;;;;;53.90;26.73;;;;;;;11.81;92.50;99972.13;4843169;29;20049;-57
2023/09/05 01:31:10;;;;;;;24.85;13.50;;;;;;;11.77;92.80;99970.19;4858118;29;20053;-56
2023/09/05 01:33:40;;;;;;;20.15;10.30;;;;;;;11.74;93.06;99966.16;4859579;29;20037;-57
2023/09/05 01:36:06;;;;;;;11.63;4.65;;;;;;;11.68;93.20;99960.94;4859346;29;20072;-57
2023/09/05 01:38:33;;;;;;;12.30;6.60;;;;;;;11.66;93.13;99961.16;4859050;29;20045;-58
2023/09/05 01:40:58;;;;;;;8.57;5.35;;;;;;;11.62;94.00;99957.38;4859438;29;20089;-58
2023/09/05 01:43:24;;;;;;;8.55;5.22;;;;;;;11.60;93.96;99954.94;4859529;29;20516;-57
2023/09/05 01:45:50;;;;;;;16.30;8.20;;;;;;;11.57;94.02;99958.03;4859205;29;20056;-57
2023/09/05 01:48:16;;;;;;;10.07;5.60;;;;;;;11.55;94.27;99956.66;4857890;29;20523;-59
2023/09/05 01:50:41;;;;;;;8.73;5.03;;;;;;;11.53;94.68;99961.38;4857862;29;20046;-58
2023/09/05 01:53:07;;;;;;;16.10;9.48;;;;;;;11.51;94.84;99966.94;4859445;29;20050;-57
2023/09/05 01:55:32;;;;;;;25.27;16.63;;;;;;;11.48;94.90;99962.09;4857597;29;20106;-58
2023/09/05 01:57:58;;;;;;;26.00;16.27;;;;;;;11.47;95.02;99962.28;4858051;29;20049;-57
2023/09/05 02:00:24;;;;;;;33.70;19.23;;;;;;;11.45;95.06;99969.69;4858011;29;20110;-58
2023/09/05 02:02:49;;;;;;;21.67;14.60;;;;;;;11.42;94.83;99962.19;4857847;29;20107;-57
2023/09/05 02:05:15;;;;;;;14.23;9.43;;;;;;;11.40;95.21;99961.59;4859015;29;20166;-57
2023/09/05 02:07:41;;;;;;;19.25;10.50;;;;;;;11.40;95.06;99961.59;4857910;29;20048;-56
2023/09/05 02:10:07;;;;;;;21.27;12.60;;;;;;;11.40;95.96;99962.41;4859036;29;20480;-58
2023/09/05 02:12:35;;;;;;;22.45;12.48;;;;;;;11.41;96.08;99961.34;4859174;29;20037;-57
2023/09/05 02:15:02;;;;;;;16.98;11.02;;;;;;;11.43;95.79;99967.25;4857799;29;20054;-56
2023/09/05 02:17:34;;;;;;;19.38;11.55;;;;;;;11.43;96.05;99959.28;4859011;29;20497;-58
2023/09/05 02:20:00;;;;;;;20.30;11.25;;;;;;;11.41;95.61;99969.31;4857611;29;20049;-59
2023/09/05 02:22:25;;;;;;;19.83;11.73;;;;;;;11.41;95.72;99969.31;4858955;29;20045;-55
2023/09/05 02:24:51;;;;;;;15.15;9.50;;;;;;;11.43;96.26;99969.09;4858933;29;20073;-56
2023/09/05 02:27:18;;;;;;;12.63;7.40;;;;;;;11.42;96.24;99972.81;4859011;29;20132;-58
2023/09/05 02:29:51;;;;;;;14.07;8.50;;;;;;;11.41;96.07;99965.88;4859051;29;20046;-58
2023/09/05 02:32:17;;;;;;;18.13;10.60;;;;;;;11.40;96.39;99964.25;4858858;29;20061;-56
2023/09/05 02:34:49;;;;;;;15.40;9.77;;;;;;;11.42;96.41;99972.81;4858806;29;20041;-57
2023/09/05 02:37:15;;;;;;;38.42;23.50;;;;;;;11.43;96.67;99985.03;4857587;29;20105;-57
2023/09/05 02:39:40;;;;;;;27.17;14.95;;;;;;;11.43;96.43;99974.41;4858424;29;20049;-59
2023/09/05 02:42:06;;;;;;;28.67;18.83;;;;;;;11.45;96.50;99985.63;4842757;29;20408;-57
2023/09/05 02:44:32;;;;;;;21.35;12.77;;;;;;;11.46;96.14;99980.06;4858974;29;20144;-57
2023/09/05 02:46:57;;;;;;;8.95;6.65;;;;;;;11.46;95.96;99977.41;4858622;29;20049;-56
2023/09/05 02:49:23;;;;;;;13.48;8.80;;;;;;;11.52;95.93;99976.50;4857495;29;20041;-58
2023/09/05 02:51:49;;;;;;;16.30;10.52;;;;;;;11.56;95.61;99972.38;4861850;29;20049;-57
2023/09/05 02:54:15;;;;;;;9.75;6.55;;;;;;;11.63;94.65;99984.72;4862087;29;20057;-58
2023/09/05 02:56:40;;;;;;;9.20;5.25;;;;;;;11.68;94.91;99982.19;4861999;29;20049;-57
2023/09/05 02:59:06;;;;;;;8.18;5.57;;;;;;;11.76;94.45;99985.28;4845356;29;20097;-58
2023/09/05 03:01:32;;;;;;;7.40;5.25;;;;;;;11.83;93.81;99980.69;4861912;29;20504;-60
2023/09/05 03:03:58;;;;;;;8.35;5.13;;;;;;;11.90;93.59;99988.56;4861713;29;20503;-57
2023/09/05 03:06:24;;;;;;;6.35;4.95;;;;;;;11.99;92.73;99997.00;4859695;29;20207;-58
2023/09/05 03:08:50;;;;;;;9.70;6.55;;;;;;;12.05;92.26;99996.88;4861908;29;20106;-57
2023/09/05 03:11:16;;;;;;;9.60;5.70;;;;;;;12.19;91.82;99991.34;4861327;29;20093;-57
2023/09/05 03:13:42;;;;;;;7.32;5.30;;;;;;;12.29;90.84;99978.25;4862237;29;20046;-57
2023/09/05 03:16:08;;;;;;;10.25;5.40;;;;;;;12.40;89.91;99988.06;4860826;29;20049;-57
2023/09/05 03:18:35;;;;;;;8.18;5.00;;;;;;;12.54;88.87;99987.81;4860237;29;20082;-57
2023/09/05 03:21:01;;;;;;;13.65;8.38;;;;;;;12.65;87.92;99985.13;4861614;29;20084;-59
2023/09/05 03:23:27;;;;;;;12.75;9.13;;;;;;;12.77;87.12;99989.59;4860145;29;20571;-55
2023/09/05 03:25:54;;;;;;;13.25;8.98;;;;;;;12.91;86.25;99985.59;4860535;29;20083;-55
2023/09/05 03:28:20;;;;;;;16.08;8.30;;;;;;;13.03;85.55;99988.19;4860380;29;20508;-57
2023/09/05 03:30:46;;;;;;;9.65;6.97;;;;;;;13.11;84.96;99990.47;4860271;29;20057;-57
2023/09/05 03:33:12;;;;;;;11.48;6.65;;;;;;;13.21;84.35;99985.34;4861579;29;20048;-58
2023/09/05 03:35:37;;;;;;;14.20;9.70;;;;;;;13.39;83.52;99977.16;4860136;29;20061;-57
2023/09/05 03:38:05;;;;;;;13.02;8.68;;;;;;;13.55;82.43;99983.53;4861593;29;20409;-59
2023/09/05 03:40:31;;;;;;;18.77;12.30;;;;;;;13.69;81.78;99985.88;4844977;29;20056;-57
2023/09/05 03:42:57;;;;;;;28.23;19.35;;;;;;;13.84;80.78;99989.56;4844541;29;20049;-57
2023/09/05 03:45:23;;;;;;;106.70;95.95;;;;;;;13.97;79.91;99988.44;4859869;29;20050;-59
2023/09/05 03:47:49;;;;;;;46.17;41.38;;;;;;;14.11;78.58;99991.56;4859807;29;20058;-56
2023/09/05 03:50:17;;;;;;;47.15;42.83;;;;;;;14.28;78.33;99994.19;4860072;29;20061;-58
2023/09/05 03:52:43;;;;;;;29.05;24.90;;;;;;;14.49;77.13;100003.25;4859717;29;20049;-58
2023/09/05 03:55:09;;;;;;;23.73;19.40;;;;;;;14.64;76.21;99991.97;4861047;29;20142;-56
2023/09/05 03:57:35;;;;;;;21.83;19.02;;;;;;;14.77;75.47;99996.97;4859756;29;20140;-57
2023/09/05 04:00:03;;;;;;;20.63;14.90;;;;;;;14.94;74.52;99988.84;4860822;29;20059;-57
2023/09/05 04:02:39;;;;;;;19.40;15.88;;;;;;;15.11;73.56;99994.88;4859706;29;20071;-58
2023/09/05 04:05:05;;;;;;;15.80;11.07;;;;;;;15.28;72.58;99992.13;4858773;29;20102;-56
2023/09/05 04:07:31;;;;;;;17.63;11.70;;;;;;;15.47;72.28;99994.41;4860422;29;20045;-57
2023/09/05 04:09:57;;;;;;;16.27;10.30;;;;;;;15.63;71.37;99996.16;4859015;29;20053;-60
2023/09/05 04:12:23;;;;;;;18.70;9.68;;;;;;;15.70;70.70;99996.75;4860337;29;20544;-58
2023/09/05 04:14:49;;;;;;;17.58;10.88;;;;;;;15.78;70.62;99998.97;4859051;29;20049;-58
2023/09/05 04:17:14;;;;;;;16.92;10.23;;;;;;;15.92;70.13;99996.66;4859253;29;20105;-58
2023/09/05 04:19:40;;;;;;;17.20;10.55;;;;;;;16.00;69.66;99998.03;4859115;29;20060;-57
2023/09/05 04:22:06;;;;;;;15.27;10.43;;;;;;;15.86;70.05;100001.16;4859014;29;20073;-59
2023/09/05 04:24:31;;;;;;;14.25;8.98;;;;;;;15.76;70.54;100003.75;4858926;29;20414;-58
2023/09/05 04:26:59;;;;;;;13.88;9.60;;;;;;;15.78;71.00;100000.84;4858703;29;20491;-57
2023/09/05 04:29:25;;;;;;;15.48;6.55;;;;;;;15.82;71.21;99999.25;4859973;29;20523;-58
2023/09/05 04:31:51;;;;;;;10.43;5.20;;;;;;;15.88;70.97;100003.56;4859837;29;20049;-56
2023/09/05 04:34:17;;;;;;;7.72;4.82;;;;;;;15.96;70.40;99996.94;4843346;29;20041;-59
2023/09/05 04:36:42;;;;;;;7.80;5.18;;;;;;;15.97;70.26;99994.03;4858334;29;20401;-56
2023/09/05 04:39:10;;;;;;;7.30;5.18;;;;;;;15.87;70.34;100002.75;4858726;29;20049;-55
2023/09/05 04:41:35;;;;;;;5.75;5.18;;;;;;;15.78;71.24;100006.97;4858947;29;20128;-59
2023/09/05 04:44:01;;;;;;;8.30;5.05;;;;;;;15.67;72.26;100006.09;4860062;29;20056;-57
2023/09/05 04:46:37;;;;;;;7.15;5.20;;;;;;;15.71;72.34;100013.63;4860194;29;20091;-60
2023/09/05 04:49:03;;;;;;;7.47;5.20;;;;;;;15.65;73.47;100005.53;4860006;29;20050;-58
2023/09/05 04:51:29;;;;;;;6.53;4.85;;;;;;;15.59;73.08;100003.09;4859831;29;20159;-60
2023/09/05 04:53:55;;;;;;;8.48;5.25;;;;;;;15.46;74.28;100001.63;4858537;29;20112;-57
2023/09/05 04:56:20;;;;;;;8.93;5.18;;;;;;;15.38;74.45;100004.75;4858677;29;20137;-60
2023/09/05 04:58:46;;;;;;;5.90;4.80;;;;;;;15.36;75.20;100004.22;4859895;29;20041;-59
2023/09/05 05:01:12;;;;;;;8.35;5.07;;;;;;;15.37;74.98;100006.63;4859637;29;20116;-60
2023/09/05 05:03:37;;;;;;;8.30;4.70;;;;;;;15.37;75.34;99997.81;4859833;29;20049;-59
2023/09/05 05:06:03;;;;;;;15.15;4.90;;;;;;;15.36;76.01;100002.34;4858794;29;20649;-59
2023/09/05 05:08:29;;;;;;;5.82;4.50;;;;;;;15.40;75.82;100010.66;4859212;29;20041;-58
2023/09/05 05:10:55;;;;;;;6.22;4.10;;;;;;;15.41;75.50;100014.94;4858526;29;20132;-58
2023/09/05 05:13:21;;;;;;;7.43;4.30;;;;;;;15.39;76.18;100014.41;4857241;29;20049;-56
2023/09/05 05:15:47;;;;;;;6.20;4.50;;;;;;;15.42;76.43;100008.53;4858882;29;20562;-58
2023/09/05 05:18:13;;;;;;;6.53;5.05;;;;;;;15.42;77.24;100014.69;4858975;29;20049;-57
2023/09/05 05:20:39;;;;;;;9.60;4.70;;;;;;;15.47;76.46;100016.59;4856621;29;20056;-58
2023/09/05 05:23:05;;;;;;;10.68;4.50;;;;;;;15.54;77.07;100005.69;4857747;29;20053;-59
2023/09/05 05:25:32;;;;;;;6.63;4.50;;;;;;;15.61;75.92;100008.97;4859243;29;20099;-57
2023/09/05 05:27:58;;;;;;;6.10;3.92;;;;;;;15.60;75.53;100012.69;4842886;29;20037;-58
2023/09/05 05:30:23;;;;;;;7.72;6.13;;;;;;;15.69;75.78;100013.06;4858043;29;20057;-59
2023/09/05 05:32:49;;;;;;;5.55;4.90;;;;;;;15.72;76.21;100013.34;4856739;29;20048;-57
2023/09/05 05:35:14;;;;;;;6.13;4.30;;;;;;;15.79;75.71;100016.59;4859008;29;20137;-60
2023/09/05 05:37:40;;;;;;;4.95;4.35;;;;;;;15.84;75.90;100019.31;4857739;29;20045;-57
2023/09/05 05:40:11;;;;;;;5.95;3.97;;;;;;;15.86;75.04;100027.91;4858022;29;20049;-59
2023/09/05 05:42:37;;;;;;;8.07;4.25;;;;;;;15.85;74.02;100018.28;4857915;29;20101;-57
2023/09/05 05:45:03;;;;;;;4.88;3.28;;;;;;;15.88;73.50;100014.25;4858980;29;20427;-59
2023/09/05 05:47:31;;;;;;;7.95;3.35;;;;;;;15.88;73.85;100014.25;4857830;29;20049;-57
2023/09/05 05:49:57;;;;;;;6.00;3.40;;;;;;;15.94;73.89;100021.25;4858942;29;20049;-57
2023/09/05 05:52:23;;;;;;;4.78;3.33;;;;;;;16.00;73.29;100014.91;4858955;29;20089;-60
2023/09/05 05:54:48;;;;;;;3.83;3.33;;;;;;;16.04;73.46;100010.63;4859121;29;20588;-59
2023/09/05 05:57:14;;;;;;;3.50;3.20;;;;;;;16.15;73.49;100016.03;4858860;29;20437;-58
2023/09/05 05:59:40;;;;;;;7.75;3.25;;;;;;;16.15;72.64;100011.50;4857297;29;20565;-56
2023/09/05 06:02:05;;;;;;;4.35;2.97;;;;;;;16.25;71.29;100016.09;4842266;29;20049;-56
2023/09/05 06:04:31;;;;;;;5.90;3.15;;;;;;;16.31;70.91;100012.38;4857475;29;20068;-59
2023/09/05 06:06:57;;;;;;;3.67;2.70;;;;;;;16.38;69.80;100004.91;4858945;29;20417;-57
2023/09/05 06:09:22;;;;;;;5.22;3.38;;;;;;;16.44;70.80;100005.75;4857334;29;20049;-59
2023/09/05 06:11:48;;;;;;;5.93;3.03;;;;;;;16.54;70.80;99993.22;4857507;29;20563;-58
2023/09/05 06:14:14;;;;;;;4.10;2.88;;;;;;;16.68;70.43;100001.59;4841745;29;20140;-59
2023/09/05 06:16:40;;;;;;;3.38;2.85;;;;;;;16.72;69.32;100005.34;4857267;29;20589;-58
2023/09/05 06:19:08;;;;;;;4.28;2.90;;;;;;;16.82;69.97;100004.59;4856970;29;20124;-59
2023/09/05 06:21:34;;;;;;;4.70;3.17;;;;;;;16.88;68.05;100008.88;4857560;29;20810;-59
2023/09/05 06:24:00;;;;;;;3.53;2.53;;;;;;;16.95;67.84;100012.13;4858299;29;20540;-60
2023/09/05 06:26:25;;;;;;;4.22;2.60;;;;;;;17.01;68.46;100003.03;4861565;29;20052;-60
2023/09/05 06:28:51;;;;;;;3.08;2.45;;;;;;;17.05;67.87;100008.66;4862405;29;20416;-60
2023/09/05 06:31:17;;;;;;;3.50;2.90;;;;;;;17.10;67.96;99997.97;4862404;29;20512;-62
2023/09/05 06:33:43;;;;;;;5.18;2.47;;;;;;;17.21;68.99;100004.16;4860927;29;20651;-59
2023/09/05 06:36:10;;;;;;;7.90;3.15;;;;;;;17.26;68.64;99998.78;4862227;29;20132;-59
2023/09/05 06:38:36;;;;;;;3.78;2.80;;;;;;;17.31;67.26;99998.78;4862274;29;20049;-57
2023/09/05 06:41:05;;;;;;;3.50;2.67;;;;;;;17.34;67.81;99998.25;4862626;29;20045;-59
2023/09/05 06:43:31;;;;;;;4.88;2.33;;;;;;;17.36;67.54;99992.66;4861670;29;20066;-58
2023/09/05 06:46:15;;;;;;;4.38;2.75;;;;;;;17.46;67.20;99992.63;4861750;29;20053;-60
2023/09/05 06:48:41;;;;;;;3.65;2.85;;;;;;;17.52;67.17;99998.81;4861222;29;20098;-60
2023/09/05 06:51:06;;;;;;;3.53;2.85;;;;;;;17.57;67.18;99993.47;4861933;29;20045;-60
2023/09/05 06:53:33;;;;;;;5.82;3.08;;;;;;;17.61;66.61;99989.16;4862197;29;20457;-59
2023/09/05 06:55:58;;;;;;;3.10;2.38;;;;;;;17.60;65.51;99983.00;4862150;29;20513;-59
2023/09/05 06:58:25;;;;;;;4.05;2.92;;;;;;;17.65;66.34;99985.69;4861491;29;20057;-59
2023/09/05 07:00:54;;;;;;;5.22;2.70;;;;;;;17.75;66.32;99979.50;4860958;29;20080;-59
2023/09/05 07:03:24;;;;;;;5.18;2.70;;;;;;;17.84;65.84;99974.41;4861591;29;20064;-59
2023/09/05 07:05:51;;;;;;;4.70;2.78;;;;;;;17.88;64.14;99983.50;4860361;29;20045;-60
2023/09/05 07:08:16;;;;;;;3.08;2.50;;;;;;;17.91;62.51;99991.00;4861579;29;20041;-59
2023/09/05 07:10:42;;;;;;;2.90;2.50;;;;;;;17.91;62.59;99983.81;4861443;29;20049;-60
2023/09/05 07:13:07;;;;;;;3.92;2.50;;;;;;;17.97;62.51;99984.59;4860160;29;20053;-59
2023/09/05 07:15:33;;;;;;;2.50;2.20;;;;;;;18.04;62.55;99970.91;4861746;29;20069;-60
2023/09/05 07:17:59;;;;;;;2.15;1.95;;;;;;;18.11;61.11;99966.03;4861228;29;20227;-58
2023/09/05 07:20:24;;;;;;;3.22;2.15;;;;;;;18.18;61.30;99963.88;4861187;29;20049;-59
2023/09/05 07:22:50;;;;;;;3.45;2.30;;;;;;;18.26;61.31;99970.53;4861254;29;20087;-58
2023/09/05 07:25:16;;;;;;;4.47;2.50;;;;;;;18.31;61.61;99971.34;4860997;29;20580;-59
2023/09/05 07:27:42;;;;;;;3.38;2.30;;;;;;;18.35;61.48;99959.00;4860362;29;20041;-59
2023/09/05 07:30:08;;;;;;;2.53;2.30;;;;;;;18.38;62.00;99965.66;4860815;29;20049;-59
2023/09/05 07:32:34;;;;;;;5.60;2.80;;;;;;;18.34;61.63;99960.03;4860916;29;20049;-60
2023/09/05 07:35:00;;;;;;;8.65;2.97;;;;;;;18.36;61.45;99957.09;4859748;29;20056;-61
2023/09/05 07:37:25;;;;;;;4.82;2.70;;;;;;;18.46;61.02;99953.56;4860085;29;20053;-59
2023/09/05 07:39:52;;;;;;;6.47;2.70;;;;;;;18.42;60.92;99964.06;4859866;29;20041;-60
2023/09/05 07:42:18;;;;;;;2.60;2.28;;;;;;;18.44;60.19;99959.19;4860764;29;20527;-59
2023/09/05 07:44:44;;;;;;;3.67;2.50;;;;;;;18.49;59.33;99955.69;4859680;29;20080;-59
2023/09/05 07:47:09;;;;;;;3.85;2.60;;;;;;;18.49;59.74;99944.97;4843778;29;20053;-58
2023/09/05 07:49:44;;;;;;;2.35;2.10;;;;;;;18.39;58.64;99951.19;4860702;29;20064;-61
2023/09/05 07:52:10;;;;;;;3.03;2.25;;;;;;;18.43;57.68;99946.84;4859327;29;20046;-59
2023/09/05 07:54:36;;;;;;;3.65;2.33;;;;;;;18.50;56.53;99942.00;4859256;29;20393;-60
2023/09/05 07:57:03;;;;;;;3.92;2.30;;;;;;;18.59;56.08;99942.22;4860582;29;20451;-58
2023/09/05 07:59:28;;;;;;;3.17;2.75;;;;;;;18.64;56.33;99944.06;4860773;29;20045;-59
2023/09/05 08:01:57;;;;;;;3.42;2.28;;;;;;;18.69;55.13;99944.84;4860385;29;20044;-58
2023/09/05 08:04:23;;;;;;;3.35;2.47;;;;;;;18.73;55.05;99937.03;4860011;29;20056;-58
2023/09/05 08:06:49;;;;;;;3.28;2.17;;;;;;;18.74;55.61;99941.38;4859946;29;20076;-58
2023/09/05 08:09:15;;;;;;;3.50;2.20;;;;;;;18.74;55.28;99944.06;4860080;29;20054;-62
2023/09/05 08:11:40;;;;;;;2.88;2.42;;;;;;;18.79;55.34;99941.31;4860062;29;20129;-58
2023/09/05 08:14:06;;;;;;;3.28;2.20;;;;;;;18.83;55.47;99940.50;4860039;29;20504;-59
2023/09/05 08:16:33;;;;;;;5.30;2.10;;;;;;;18.88;54.23;99930.78;4858507;29;20512;-60
2023/09/05 08:18:59;;;;;;;4.55;2.63;;;;;;;18.88;53.45;99930.78;4858608;29;20073;-58
2023/09/05 08:21:26;;;;;;;4.20;2.35;;;;;;;18.79;53.56;99934.06;4860043;29;20076;-60
2023/09/05 08:23:52;;;;;;;3.45;2.47;;;;;;;18.91;53.95;99920.28;4859642;29;20065;-59
2023/09/05 08:26:18;;;;;;;2.60;2.40;;;;;;;19.01;53.67;99922.91;4860083;29;20049;-59
2023/09/05 08:28:45;;;;;;;3.38;2.55;;;;;;;19.13;52.42;99924.44;4860457;29;20052;-59
2023/09/05 08:31:11;;;;;;;7.57;2.80;;;;;;;19.24;52.29;99917.91;4843588;29;20053;-59
2023/09/05 08:33:37;;;;;;;6.80;3.03;;;;;;;19.37;52.21;99916.44;4858756;29;20053;-58
2023/09/05 08:36:08;;;;;;;3.38;2.40;;;;;;;19.48;51.57;99915.28;4858779;29;20049;-61
2023/09/05 08:38:37;;;;;;;5.00;2.65;;;;;;;19.49;51.15;99914.97;4843442;29;20145;-59
2023/09/05 08:41:04;;;;;;;4.03;2.43;;;;;;;19.49;50.75;99916.88;4859805;29;20072;-58
2023/09/05 08:43:30;;;;;;;3.75;2.40;;;;;;;19.51;51.06;99920.88;4860168;29;20064;-58
2023/09/05 08:46:00;;;;;;;4.70;2.70;;;;;;;19.42;48.24;99916.41;4859878;29;20057;-59
2023/09/05 08:48:27;;;;;;;3.55;2.63;;;;;;;19.34;47.10;99925.09;4859417;29;20049;-58
2023/09/05 08:50:54;;;;;;;3.35;2.60;;;;;;;19.20;48.06;99920.34;4859581;29;20057;-58
2023/09/05 08:53:23;;;;;;;3.72;2.80;;;;;;;19.18;48.55;99916.34;4858284;29;20041;-58
2023/09/05 08:55:49;;;;;;;3.97;2.72;;;;;;;19.25;49.52;99914.13;4858158;29;20065;-58
2023/09/05 08:58:15;;;;;;;2.60;2.35;;;;;;;19.30;48.75;99911.41;4857905;29;20901;-58
2023/09/05 09:00:43;;;;;;;5.18;2.80;;;;;;;19.35;49.24;99915.91;4858589;29;20056;-58
2023/09/05 09:03:09;;;;;;;5.25;3.03;;;;;;;19.40;48.85;99910.50;4859670;29;20042;-58
2023/09/05 09:05:38;;;;;;;3.10;2.50;;;;;;;19.40;48.19;99910.50;4859293;29;20121;-60
2023/09/05 09:08:04;;;;;;;5.40;2.67;;;;;;;19.44;47.51;99906.16;4857544;29;20049;-59
2023/09/05 09:10:30;;;;;;;3.33;2.30;;;;;;;19.48;47.02;99910.69;4842781;29;20477;-59
2023/09/05 09:13:17;;;;;;;3.25;2.70;;;;;;;19.54;47.20;99897.22;4859545;29;20056;-60
2023/09/05 09:15:43;;;;;;;5.15;2.65;;;;;;;19.62;47.65;99901.94;4859190;29;20045;-59
2023/09/05 09:18:13;;;;;;;3.50;3.00;;;;;;;19.73;48.89;99900.78;4857849;29;20049;-59
2023/09/05 09:20:43;;;;;;;5.22;3.10;;;;;;;19.85;49.10;99903.09;4859122;29;20512;-59
2023/09/05 09:23:09;;;;;;;;;;;;;;;19.91;46.24;99900.06;4859432;29;20356;-58
2023/09/05 09:25:34;;;;;;;4.30;2.90;;;;;;;19.90;45.72;99897.66;4859055;29;19939;-58
2023/09/05 09:28:00;;;;;;;4.05;2.80;;;;;;;19.81;46.48;99900.16;4858990;29;20576;-59
2023/09/05 09:30:27;;;;;;;5.30;2.90;;;;;;;19.78;46.04;99894.56;4859336;29;20450;-58
2023/09/05 09:32:54;;;;;;;4.20;2.65;;;;;;;19.84;45.07;99894.22;4859134;29;20049;-60
2023/09/05 09:35:20;;;;;;;5.70;2.45;;;;;;;19.79;44.92;99896.97;4859254;29;20048;-60
2023/09/05 09:37:47;;;;;;;5.13;2.55;;;;;;;19.79;44.30;99888.09;4858614;29;20045;-57
2023/09/05 09:40:16;;;;;;;3.10;2.55;;;;;;;19.78;44.49;99891.88;4857908;29;20519;-58
2023/09/05 09:42:43;;;;;;;3.17;2.67;;;;;;;19.81;44.33;99884.03;4859235;29;20690;-58
2023/09/05 09:45:09;;;;;;;4.18;2.58;;;;;;;19.88;44.55;99883.69;4858061;29;20157;-60
2023/09/05 09:47:40;;;;;;;4.72;2.70;;;;;;;19.95;44.42;99882.25;4857789;29;20065;-59
2023/09/05 09:50:06;;;;;;;6.18;2.92;;;;;;;19.94;44.66;99894.13;4859105;29;20049;-59
2023/09/05 09:52:35;;;;;;;5.20;2.90;;;;;;;19.98;44.87;99885.47;4859149;29;20045;-59
2023/09/05 09:55:03;;;;;;;4.63;2.70;;;;;;;19.92;44.05;99890.91;4858881;29;20049;-59
2023/09/05 09:58:08;;;;;;;4.53;2.70;;;;;;;19.98;42.93;99888.16;4859087;29;20053;-61
2023/09/05 10:00:35;;;;;;;3.72;3.00;;;;;;;20.03;43.77;99883.53;4856104;29;20041;-59
2023/09/05 10:03:04;;;;;;;2.83;2.50;;;;;;;20.12;43.78;99878.31;4858757;29;20114;-59
2023/09/05 10:05:30;;;;;;;3.83;3.20;;;;;;;20.19;44.33;99873.34;4857326;29;20045;-60
2023/09/05 10:07:57;;;;;;;6.63;3.58;;;;;;;20.27;44.57;99866.53;4857540;29;20079;-59
2023/09/05 10:10:24;;;;;;;3.80;3.05;;;;;;;20.26;44.26;99865.72;4857467;29;20061;-59
2023/09/05 10:12:51;;;;;;;4.03;2.90;;;;;;;20.28;44.29;99862.75;4858683;29;20143;-60
2023/09/05 10:15:18;;;;;;;3.80;2.75;;;;;;;20.34;44.38;99869.66;4858854;29;20042;-59
2023/09/05 10:17:45;;;;;;;5.80;3.10;;;;;;;20.39;44.44;99869.59;4857686;29;20073;-59
2023/09/05 10:20:14;;;;;;;3.95;3.00;;;;;;;20.43;43.91;99862.53;4858043;29;20132;-59
2023/09/05 10:22:40;;;;;;;5.30;2.80;;;;;;;20.45;43.24;99865.72;4857253;29;20053;-59
2023/09/05 10:25:07;;;;;;;4.78;2.90;;;;;;;20.49;43.56;99860.56;4857012;29;20053;-59
2023/09/05 10:27:33;;;;;;;4.53;2.63;;;;;;;20.51;42.92;99866.47;4856979;29;20136;-59
2023/09/05 10:29:59;;;;;;;5.25;3.35;;;;;;;20.47;42.41;99873.50;4857507;29;20131;-61
2023/09/05 10:32:25;;;;;;;5.00;3.05;;;;;;;20.31;42.50;99867.53;4857692;29;20499;-59
2023/09/05 10:34:50;;;;;;;5.38;3.00;;;;;;;20.22;42.87;99862.00;4856826;29;20042;-59
2023/09/05 10:37:26;;;;;;;3.75;2.85;;;;;;;20.19;42.31;99860.69;4856609;29;20053;-61
2023/09/05 10:39:55;;;;;;;5.20;3.05;;;;;;;20.26;43.29;99864.91;4857538;29;20103;-59
2023/09/05 10:42:29;;;;;;;4.20;3.03;;;;;;;20.34;43.00;99859.69;4858629;29;20457;-57
2023/09/05 10:44:55;;;;;;;4.70;3.28;;;;;;;20.43;42.42;99846.38;4857560;29;20435;-59
2023/09/05 10:47:29;;;;;;;4.80;2.92;;;;;;;20.60;42.55;99856.66;4858612;29;20057;-58
2023/09/05 10:50:00;;;;;;;4.53;2.83;;;;;;;20.71;42.33;99854.63;4857053;29;20045;-59
2023/09/05 10:52:29;;;;;;;;;;;;;;;20.90;42.51;99844.59;4858862;29;20057;-59
2023/09/05 10:54:59;;;;;;;7.45;3.10;;;;;;;21.07;42.67;99846.75;4858530;29;20306;-57
2023/09/05 10:57:45;;;;;;;9.98;3.60;;;;;;;21.21;41.98;99838.69;4857232;29;20512;-58
2023/09/05 11:00:26;;;;;;;4.32;2.95;;;;;;;21.25;41.70;99835.09;4820800;29;20101;-57
2023/09/05 11:02:55;;;;;;;4.88;3.13;;;;;;;21.23;41.43;99839.97;4858586;29;20564;-58
2023/09/05 11:05:24;;;;;;;4.43;3.25;;;;;;;21.28;41.56;99828.31;4857034;29;20059;-58
2023/09/05 11:07:50;;;;;;;5.07;3.17;;;;;;;21.33;41.64;99830.94;4856962;29;20045;-58
2023/09/05 11:10:32;;;;;;;5.03;2.97;;;;;;;21.27;42.29;99822.13;4858356;29;20166;-58
2023/09/05 11:13:08;;;;;;;7.88;3.15;;;;;;;21.19;41.53;99833.59;4859103;29;20561;-58
2023/09/05 11:15:36;;;;;;;7.30;3.38;;;;;;;21.13;41.74;99821.31;4861665;29;20045;-56
2023/09/05 11:18:06;;;;;;;5.55;3.00;;;;;;;21.05;41.94;99816.59;4861610;29;20106;-57
2023/09/05 11:20:46;;;;;;;5.97;3.20;;;;;;;21.07;41.15;99817.09;4857706;29;20124;-57
2023/09/05 11:23:12;;;;;;;4.97;3.22;;;;;;;21.14;41.57;99814.81;4861356;29;20405;-56
2023/09/05 11:25:46;;;;;;;5.20;2.85;;;;;;;21.26;41.13;99811.63;4860202;29;20042;-58
2023/09/05 11:28:13;;;;;;;5.63;3.40;;;;;;;21.41;41.13;99811.38;4861672;29;20522;-58
2023/09/05 11:30:42;;;;;;;4.00;2.80;;;;;;;21.64;41.02;99806.88;4844373;29;20420;-59